Time;durP1;ratioP1;P1;durP2;ratioP2;P2;SDS_P1;SDS_P2;PMS_P1;PMS_P2;Temp;Humidity;BMP_temperature;BMP_pressure;BME280_temperature;BME280_humidity;BME280_pressure;Samples;Min_cycle;Max_cycle;Signal;HPM_P1;HPM_P2
2023/08/08 00:00:08;;;;;;;0.00;0.00;;;15.30;82.50;;;;;;4992486;28;20126;-75
2023/08/08 00:02:34;;;;;;;0.00;0.00;;;15.30;82.60;;;;;;4995657;28;20493;-75
2023/08/08 00:05:00;;;;;;;0.00;0.00;;;15.30;82.50;;;;;;4998100;28;20074;-75
2023/08/08 00:07:26;;;;;;;0.00;0.00;;;15.30;82.60;;;;;;4998243;28;20044;-75
2023/08/08 00:09:51;;;;;;;0.20;0.20;;;15.30;82.90;;;;;;4991666;28;20050;-75
2023/08/08 00:12:17;;;;;;;0.00;0.00;;;15.30;82.80;;;;;;4992548;28;20511;-75
2023/08/08 00:14:42;;;;;;;0.00;0.00;;;15.30;82.70;;;;;;5002653;28;20054;-75
2023/08/08 00:17:08;;;;;;;0.00;0.00;;;15.20;82.90;;;;;;4995438;28;20396;-75
2023/08/08 00:19:34;;;;;;;0.22;0.22;;;15.20;83.10;;;;;;5006579;28;20068;-75
2023/08/08 00:21:59;;;;;;;0.00;0.00;;;15.20;83.30;;;;;;5007108;28;20095;-76
2023/08/08 00:24:25;;;;;;;0.00;0.00;;;15.20;83.10;;;;;;5006682;28;20045;-75
2023/08/08 00:26:51;;;;;;;0.00;0.00;;;15.20;83.20;;;;;;4990854;28;20042;-75
2023/08/08 00:29:16;;;;;;;0.00;0.00;;;15.10;83.50;;;;;;4991501;28;20057;-76
2023/08/08 00:31:42;;;;;;;0.00;0.00;;;15.10;83.50;;;;;;5000754;28;20046;-75
2023/08/08 00:34:07;;;;;;;0.00;0.00;;;15.10;83.70;;;;;;4996980;28;20060;-75
2023/08/08 00:36:33;;;;;;;0.00;0.00;;;15.10;83.90;;;;;;5004914;28;20034;-75
2023/08/08 00:38:58;;;;;;;0.00;0.00;;;15.00;83.80;;;;;;5000131;28;20046;-75
2023/08/08 00:41:25;;;;;;;0.00;0.00;;;15.00;83.70;;;;;;5003060;28;20042;-75
2023/08/08 00:43:52;;;;;;;0.20;0.20;;;15.00;83.70;;;;;;4991355;28;20042;-76
2023/08/08 00:46:21;;;;;;;0.00;0.00;;;15.00;83.80;;;;;;4995367;28;20458;-75
2023/08/08 00:48:47;;;;;;;0.00;0.00;;;15.00;83.80;;;;;;4989890;28;20053;-75
2023/08/08 00:51:14;;;;;;;0.00;0.00;;;15.00;83.80;;;;;;4998498;28;20047;-75
2023/08/08 00:53:39;;;;;;;0.00;0.00;;;15.00;83.70;;;;;;5001158;28;20495;-75
2023/08/08 00:56:05;;;;;;;0.00;0.00;;;15.00;83.90;;;;;;5003020;28;20042;-75
2023/08/08 00:58:31;;;;;;;1.45;1.35;;;14.90;84.40;;;;;;5000655;28;20044;-75
2023/08/08 01:00:59;;;;;;;0.00;0.00;;;14.90;84.60;;;;;;4999304;28;20061;-75
2023/08/08 01:03:26;;;;;;;0.00;0.00;;;14.90;84.80;;;;;;5008077;28;20486;-75
2023/08/08 01:06:03;;;;;;;0.00;0.00;;;14.90;84.90;;;;;;4992449;28;20173;-75
2023/08/08 01:08:39;;;;;;;0.00;0.00;;;14.90;84.90;;;;;;4990795;28;20844;-75
2023/08/08 01:11:05;;;;;;;0.00;0.00;;;14.90;84.60;;;;;;5002469;28;20050;-75
2023/08/08 01:13:32;;;;;;;0.00;0.00;;;14.90;85.00;;;;;;5006768;28;20046;-75
2023/08/08 01:15:59;;;;;;;0.00;0.00;;;14.90;84.90;;;;;;5009071;28;20045;-75
2023/08/08 01:18:26;;;;;;;0.00;0.00;;;14.90;85.00;;;;;;4992364;28;20069;-75
2023/08/08 01:20:54;;;;;;;0.00;0.00;;;14.80;85.20;;;;;;5000792;28;20152;-75
2023/08/08 01:23:24;;;;;;;0.00;0.00;;;14.90;85.20;;;;;;5006021;28;20499;-75
2023/08/08 01:25:50;;;;;;;0.00;0.00;;;14.90;85.10;;;;;;5002813;28;20070;-75
2023/08/08 01:28:16;;;;;;;0.00;0.00;;;14.80;85.10;;;;;;4994126;28;20045;-75
2023/08/08 01:30:43;;;;;;;0.00;0.00;;;14.80;85.00;;;;;;5001281;28;20050;-75
2023/08/08 01:33:09;;;;;;;0.00;0.00;;;14.90;84.80;;;;;;4994040;28;20045;-75
2023/08/08 01:35:40;;;;;;;0.00;0.00;;;14.90;84.80;;;;;;4989723;28;20047;-75
2023/08/08 01:38:14;;;;;;;0.00;0.00;;;14.80;84.60;;;;;;5004737;28;20043;-75
2023/08/08 01:40:41;;;;;;;0.10;0.10;;;14.80;84.60;;;;;;4990571;28;20076;-75
2023/08/08 01:43:07;;;;;;;0.00;0.00;;;14.90;84.70;;;;;;4994654;28;20082;-75
2023/08/08 01:45:33;;;;;;;0.00;0.00;;;14.80;84.70;;;;;;4999722;28;20045;-75
2023/08/08 01:47:58;;;;;;;0.00;0.00;;;14.80;84.70;;;;;;5002511;28;20406;-75
2023/08/08 01:50:25;;;;;;;0.00;0.00;;;14.80;84.50;;;;;;4989051;28;20647;-75
2023/08/08 01:52:51;;;;;;;0.00;0.00;;;14.90;84.50;;;;;;5002159;28;20057;-75
2023/08/08 01:55:16;;;;;;;0.00;0.00;;;14.90;84.50;;;;;;4997056;28;20047;-75
2023/08/08 01:57:42;;;;;;;0.00;0.00;;;14.90;84.40;;;;;;4992541;28;20046;-75
2023/08/08 02:00:08;;;;;;;0.00;0.00;;;14.80;84.40;;;;;;5000325;28;20049;-75
2023/08/08 02:02:35;;;;;;;0.00;0.00;;;14.90;84.40;;;;;;5003060;28;20087;-75
2023/08/08 02:05:01;;;;;;;0.10;0.10;;;14.90;84.30;;;;;;5003792;28;20419;-75
2023/08/08 02:07:27;;;;;;;0.00;0.00;;;14.90;84.30;;;;;;5007650;28;20057;-75
2023/08/08 02:09:52;;;;;;;0.00;0.00;;;15.00;84.10;;;;;;5000042;28;20035;-75
2023/08/08 02:12:18;;;;;;;0.88;0.88;;;14.90;84.10;;;;;;4996062;28;20038;-75
2023/08/08 02:14:43;;;;;;;0.00;0.00;;;14.90;84.30;;;;;;5005640;28;20129;-75
2023/08/08 02:17:09;;;;;;;0.00;0.00;;;15.00;84.30;;;;;;4989854;28;20058;-75
2023/08/08 02:19:34;;;;;;;0.00;0.00;;;14.90;84.10;;;;;;4999286;28;20065;-74
2023/08/08 02:22:00;;;;;;;0.00;0.00;;;14.90;84.10;;;;;;5004235;28;20042;-75
2023/08/08 02:24:25;;;;;;;0.00;0.00;;;14.90;84.00;;;;;;4990881;28;20168;-75
2023/08/08 02:26:51;;;;;;;0.00;0.00;;;14.90;84.00;;;;;;4988821;28;20132;-75
2023/08/08 02:29:16;;;;;;;1.15;1.08;;;14.90;84.00;;;;;;4987545;28;20128;-75
2023/08/08 02:31:42;;;;;;;0.00;0.00;;;14.90;84.00;;;;;;4993704;28;20038;-75
2023/08/08 02:34:07;;;;;;;0.00;0.00;;;14.90;84.00;;;;;;5006066;28;20049;-75
2023/08/08 02:36:33;;;;;;;0.00;0.00;;;14.90;84.10;;;;;;4992396;28;20042;-75
2023/08/08 02:38:59;;;;;;;0.00;0.00;;;14.90;84.00;;;;;;4987875;28;20037;-75
2023/08/08 02:41:24;;;;;;;0.00;0.00;;;14.80;83.90;;;;;;5001962;28;20060;-75
2023/08/08 02:43:50;;;;;;;0.13;0.13;;;14.90;83.90;;;;;;4993711;28;20042;-74
2023/08/08 02:46:16;;;;;;;0.03;0.03;;;14.80;83.70;;;;;;5005086;28;20037;-75
2023/08/08 02:48:41;;;;;;;0.10;0.10;;;14.80;83.60;;;;;;5000518;28;20078;-75
2023/08/08 02:51:07;;;;;;;0.00;0.00;;;14.80;83.50;;;;;;5006258;28;20442;-75
2023/08/08 02:53:32;;;;;;;0.00;0.00;;;14.80;83.50;;;;;;5004224;28;20046;-75
2023/08/08 02:55:58;;;;;;;0.00;0.00;;;14.80;83.40;;;;;;4991973;28;20046;-75
2023/08/08 02:58:23;;;;;;;0.00;0.00;;;14.70;83.20;;;;;;5000472;28;20042;-75
2023/08/08 03:00:49;;;;;;;0.00;0.00;;;14.70;83.30;;;;;;5005606;28;20073;-75
2023/08/08 03:03:15;;;;;;;0.00;0.00;;;14.70;83.30;;;;;;4999922;28;20622;-75
2023/08/08 03:05:40;;;;;;;0.00;0.00;;;14.60;83.30;;;;;;4988884;28;20045;-75
2023/08/08 03:08:06;;;;;;;0.00;0.00;;;14.60;83.20;;;;;;4988798;28;20058;-75
2023/08/08 03:10:31;;;;;;;0.00;0.00;;;14.60;83.40;;;;;;4990486;28;20102;-75
2023/08/08 03:12:57;;;;;;;0.47;0.47;;;14.60;83.60;;;;;;4992192;28;20497;-75
2023/08/08 03:15:23;;;;;;;0.00;0.00;;;14.60;83.80;;;;;;4989084;28;20064;-75
2023/08/08 03:17:48;;;;;;;0.00;0.00;;;14.50;83.80;;;;;;4988695;28;20054;-75
2023/08/08 03:20:14;;;;;;;0.00;0.00;;;14.50;83.70;;;;;;4996891;28;20531;-75
2023/08/08 03:22:40;;;;;;;0.00;0.00;;;14.50;83.90;;;;;;4998530;28;20041;-75
2023/08/08 03:25:06;;;;;;;0.00;0.00;;;14.50;84.10;;;;;;4989604;28;20049;-75
2023/08/08 03:27:31;;;;;;;0.00;0.00;;;14.40;84.50;;;;;;4994746;28;20057;-75
2023/08/08 03:29:57;;;;;;;0.43;0.28;;;14.40;84.50;;;;;;4992320;28;20047;-75
2023/08/08 03:32:22;;;;;;;0.05;0.05;;;14.30;84.70;;;;;;4990498;28;20081;-75
2023/08/08 03:34:48;;;;;;;0.00;0.00;;;14.40;84.60;;;;;;4988282;28;20058;-75
2023/08/08 03:37:13;;;;;;;0.00;0.00;;;14.40;84.60;;;;;;4988552;28;20051;-75
2023/08/08 03:39:39;;;;;;;0.00;0.00;;;14.40;84.50;;;;;;4993195;28;20045;-75
2023/08/08 03:42:05;;;;;;;0.00;0.00;;;14.40;84.80;;;;;;5006155;28;20834;-75
2023/08/08 03:44:30;;;;;;;0.52;0.52;;;14.40;84.80;;;;;;5005630;28;20046;-75
2023/08/08 03:46:56;;;;;;;0.00;0.00;;;14.40;84.70;;;;;;4990962;28;20042;-75
2023/08/08 03:49:22;;;;;;;0.00;0.00;;;14.40;84.60;;;;;;4997964;28;20053;-75
2023/08/08 03:51:48;;;;;;;0.00;0.00;;;14.40;84.60;;;;;;5001056;28;20061;-75
2023/08/08 03:54:14;;;;;;;0.20;0.20;;;14.40;84.40;;;;;;4994214;28;20567;-75
2023/08/08 03:56:40;;;;;;;0.00;0.00;;;14.40;84.30;;;;;;5007998;28;20053;-75
2023/08/08 03:59:06;;;;;;;0.00;0.00;;;14.40;84.20;;;;;;5002473;28;20514;-75
2023/08/08 04:01:32;;;;;;;0.10;0.10;;;14.40;84.20;;;;;;4999380;28;20108;-75
2023/08/08 04:03:57;;;;;;;0.00;0.00;;;14.40;84.00;;;;;;5001324;28;20048;-75
2023/08/08 04:06:23;;;;;;;0.00;0.00;;;14.40;84.00;;;;;;4993707;28;20050;-75
2023/08/08 04:08:48;;;;;;;0.00;0.00;;;14.40;83.80;;;;;;5006330;28;20387;-75
2023/08/08 04:11:14;;;;;;;0.00;0.00;;;14.40;83.70;;;;;;4999200;28;20073;-75
2023/08/08 04:13:40;;;;;;;0.00;0.00;;;14.30;83.50;;;;;;4991853;28;20057;-75
2023/08/08 04:16:05;;;;;;;0.00;0.00;;;14.40;83.40;;;;;;4996063;28;20125;-75
2023/08/08 04:18:31;;;;;;;0.00;0.00;;;14.30;83.10;;;;;;5005388;28;20058;-75
2023/08/08 04:20:56;;;;;;;0.00;0.00;;;14.30;83.00;;;;;;4996603;28;20133;-75
2023/08/08 04:23:25;;;;;;;0.00;0.00;;;14.30;82.50;;;;;;5000621;28;20578;-75
2023/08/08 04:25:51;;;;;;;0.00;0.00;;;14.30;82.70;;;;;;5014895;28;20100;-75
2023/08/08 04:28:16;;;;;;;0.00;0.00;;;14.40;82.70;;;;;;5015117;28;20042;-75
2023/08/08 04:30:42;;;;;;;0.00;0.00;;;14.50;82.50;;;;;;5000367;28;20113;-75
2023/08/08 04:33:07;;;;;;;0.00;0.00;;;14.40;82.80;;;;;;4991826;28;20411;-74
2023/08/08 04:35:33;;;;;;;0.00;0.00;;;14.50;83.50;;;;;;4996135;28;20084;-74
2023/08/08 04:37:58;;;;;;;0.00;0.00;;;14.50;84.20;;;;;;5008551;28;20054;-73
2023/08/08 04:40:24;;;;;;;0.00;0.00;;;14.40;84.40;;;;;;5001419;28;20052;-74
2023/08/08 04:42:50;;;;;;;0.00;0.00;;;14.40;84.30;;;;;;5001875;28;20073;-74
2023/08/08 04:45:16;;;;;;;0.00;0.00;;;14.30;84.70;;;;;;5005872;28;20042;-75
2023/08/08 04:47:42;;;;;;;0.00;0.00;;;14.30;84.70;;;;;;4995843;28;20038;-75
2023/08/08 04:50:08;;;;;;;0.00;0.00;;;14.30;85.50;;;;;;4997706;28;20097;-75
2023/08/08 04:52:33;;;;;;;0.00;0.00;;;14.30;85.90;;;;;;4991715;28;20038;-75
2023/08/08 04:54:59;;;;;;;0.00;0.00;;;14.30;86.20;;;;;;5007112;28;20073;-74
2023/08/08 04:57:24;;;;;;;0.00;0.00;;;14.30;86.60;;;;;;4993181;28;20052;-74
2023/08/08 04:59:50;;;;;;;0.00;0.00;;;14.30;86.50;;;;;;5002793;28;20120;-75
2023/08/08 05:02:16;;;;;;;0.00;0.00;;;14.30;86.80;;;;;;5007039;28;20084;-74
2023/08/08 05:04:41;;;;;;;0.00;0.00;;;14.20;86.90;;;;;;4997981;28;20455;-74
2023/08/08 05:07:07;;;;;;;0.00;0.00;;;14.30;86.80;;;;;;5000764;28;20125;-72
2023/08/08 05:09:33;;;;;;;0.20;0.20;;;14.30;86.80;;;;;;5010069;28;20052;-72
2023/08/08 05:11:58;;;;;;;0.00;0.00;;;14.30;86.50;;;;;;4997280;28;20050;-73
2023/08/08 05:14:24;;;;;;;0.00;0.00;;;14.30;86.70;;;;;;5006505;28;20129;-74
2023/08/08 05:16:49;;;;;;;0.00;0.00;;;14.30;86.60;;;;;;5007816;28;20117;-73
2023/08/08 05:19:15;;;;;;;0.00;0.00;;;14.40;86.60;;;;;;4997798;28;20097;-74
2023/08/08 05:21:41;;;;;;;0.22;0.22;;;14.40;86.60;;;;;;5000111;28;20046;-74
2023/08/08 05:24:07;;;;;;;0.10;0.10;;;14.40;86.60;;;;;;5000812;28;20042;-74
2023/08/08 05:26:32;;;;;;;0.00;0.00;;;14.40;86.50;;;;;;4998546;28;20077;-73
2023/08/08 05:28:58;;;;;;;0.00;0.00;;;14.50;86.50;;;;;;4997933;28;20049;-70
2023/08/08 05:31:24;;;;;;;0.00;0.00;;;14.60;86.20;;;;;;5009151;28;20104;-74
2023/08/08 05:33:49;;;;;;;0.00;0.00;;;14.50;86.40;;;;;;4996058;28;20054;-73
2023/08/08 05:36:15;;;;;;;0.00;0.00;;;14.60;86.30;;;;;;4990691;28;20145;-73
2023/08/08 05:38:43;;;;;;;0.00;0.00;;;14.60;86.10;;;;;;4990472;28;20112;-73
2023/08/08 05:41:09;;;;;;;0.00;0.00;;;14.70;86.20;;;;;;4990128;28;20054;-74
2023/08/08 05:43:35;;;;;;;0.00;0.00;;;14.60;86.20;;;;;;5001148;28;20136;-73
2023/08/08 05:46:01;;;;;;;0.00;0.00;;;14.70;86.30;;;;;;5009275;28;20489;-74
2023/08/08 05:48:26;;;;;;;0.00;0.00;;;14.70;86.30;;;;;;5005456;28;20058;-73
2023/08/08 05:50:52;;;;;;;0.00;0.00;;;14.70;86.20;;;;;;5008451;28;20054;-73
2023/08/08 05:53:17;;;;;;;0.00;0.00;;;14.80;86.00;;;;;;5006760;28;20033;-70
2023/08/08 05:55:43;;;;;;;0.00;0.00;;;14.90;85.80;;;;;;5005202;28;20050;-74
2023/08/08 05:58:09;;;;;;;0.00;0.00;;;14.90;85.40;;;;;;4991578;28;20125;-75
2023/08/08 06:00:35;;;;;;;0.00;0.00;;;15.00;85.20;;;;;;4999553;28;20121;-76
2023/08/08 06:03:01;;;;;;;0.00;0.00;;;15.00;84.60;;;;;;4988587;28;20515;-75
2023/08/08 06:05:27;;;;;;;0.00;0.00;;;15.10;83.70;;;;;;5001916;28;20046;-76
2023/08/08 06:07:52;;;;;;;0.05;0.05;;;15.10;84.10;;;;;;4997382;28;20100;-76
2023/08/08 06:10:18;;;;;;;0.00;0.00;;;15.20;83.90;;;;;;4989224;28;20050;-76
2023/08/08 06:12:43;;;;;;;0.00;0.00;;;15.20;83.80;;;;;;5007344;28;20053;-76
2023/08/08 06:15:09;;;;;;;0.00;0.00;;;15.30;83.70;;;;;;5006539;28;20774;-76
2023/08/08 06:17:35;;;;;;;0.00;0.00;;;15.30;83.40;;;;;;4993949;28;20415;-76
2023/08/08 06:20:00;;;;;;;0.05;0.05;;;15.40;83.40;;;;;;5003101;28;20054;-76
2023/08/08 06:22:26;;;;;;;4.50;0.75;;;15.40;83.20;;;;;;5008628;28;20038;-75
2023/08/08 06:24:52;;;;;;;0.10;0.10;;;15.50;82.80;;;;;;4990407;28;20056;-75
2023/08/08 06:27:17;;;;;;;0.00;0.00;;;15.50;82.90;;;;;;4990040;28;20058;-77
2023/08/08 06:29:43;;;;;;;0.00;0.00;;;15.60;82.50;;;;;;4998328;28;20054;-79
2023/08/08 06:32:09;;;;;;;0.00;0.00;;;15.60;82.60;;;;;;5003285;28;20508;-77
2023/08/08 06:34:34;;;;;;;0.63;0.63;;;15.70;82.40;;;;;;5008667;28;20095;-72
2023/08/08 06:37:00;;;;;;;0.45;0.45;;;15.80;82.10;;;;;;5016548;28;20093;-72
2023/08/08 06:39:25;;;;;;;0.00;0.00;;;15.80;81.10;;;;;;5014759;28;20041;-72
2023/08/08 06:41:51;;;;;;;1.42;1.33;;;15.80;80.80;;;;;;5016692;28;20070;-72
2023/08/08 06:44:17;;;;;;;0.00;0.00;;;15.80;80.70;;;;;;5016150;28;20038;-72
2023/08/08 06:46:42;;;;;;;0.00;0.00;;;15.90;80.80;;;;;;5015673;28;20041;-72
2023/08/08 06:49:08;;;;;;;5.93;1.75;;;15.90;80.60;;;;;;5017179;28;20077;-73
2023/08/08 06:51:34;;;;;;;0.00;0.00;;;16.00;79.90;;;;;;5018092;28;20073;-72
2023/08/08 06:54:00;;;;;;;0.00;0.00;;;16.10;80.00;;;;;;5017658;28;20447;-73
2023/08/08 06:56:28;;;;;;;0.00;0.00;;;16.20;79.60;;;;;;5017048;28;20038;-73
2023/08/08 06:58:54;;;;;;;0.00;0.00;;;16.20;79.40;;;;;;5016599;28;20466;-73
2023/08/08 07:01:20;;;;;;;0.03;0.03;;;16.20;79.60;;;;;;5017324;28;20120;-73
2023/08/08 07:03:46;;;;;;;0.80;0.80;;;16.20;79.80;;;;;;5017346;28;20155;-73
2023/08/08 07:06:12;;;;;;;0.73;0.73;;;16.10;79.20;;;;;;5017558;28;20068;-73
2023/08/08 07:08:39;;;;;;;0.00;0.00;;;16.10;79.10;;;;;;5016154;28;20138;-73
2023/08/08 07:11:06;;;;;;;0.00;0.00;;;16.10;79.80;;;;;;5017553;28;20041;-73
2023/08/08 07:13:31;;;;;;;0.00;0.00;;;16.20;80.00;;;;;;5017194;28;20049;-73
2023/08/08 07:15:57;;;;;;;0.00;0.00;;;16.20;79.90;;;;;;5017413;28;20034;-73
2023/08/08 07:18:23;;;;;;;0.00;0.00;;;16.10;80.20;;;;;;5017678;28;20088;-73
2023/08/08 07:20:49;;;;;;;0.00;0.00;;;16.10;80.80;;;;;;5017275;28;20052;-73
2023/08/08 07:23:16;;;;;;;0.00;0.00;;;16.10;80.60;;;;;;5016224;28;20060;-73
2023/08/08 07:25:42;;;;;;;0.00;0.00;;;16.20;80.00;;;;;;5016659;28;20120;-73
2023/08/08 07:28:08;;;;;;;0.65;0.45;;;16.20;79.40;;;;;;5019183;28;20478;-73
2023/08/08 07:30:34;;;;;;;0.00;0.00;;;16.20;79.50;;;;;;5018882;28;20124;-73
2023/08/08 07:33:00;;;;;;;0.00;0.00;;;16.20;79.60;;;;;;5020035;28;20191;-73
2023/08/08 07:35:25;;;;;;;0.00;0.00;;;16.20;80.00;;;;;;5002897;28;20041;-73
2023/08/08 07:37:51;;;;;;;0.00;0.00;;;16.30;79.80;;;;;;5020889;28;20049;-73
2023/08/08 07:40:18;;;;;;;0.00;0.00;;;16.30;79.80;;;;;;5019080;28;20124;-73
2023/08/08 07:42:48;;;;;;;0.00;0.00;;;16.30;79.50;;;;;;5020124;28;20046;-74
2023/08/08 07:45:14;;;;;;;0.00;0.00;;;16.30;79.20;;;;;;5019918;28;20048;-74
2023/08/08 07:47:39;;;;;;;0.00;0.00;;;16.30;79.60;;;;;;5019993;28;20041;-74
2023/08/08 07:50:08;;;;;;;0.00;0.00;;;16.30;79.10;;;;;;5020075;28;20056;-74
2023/08/08 07:52:34;;;;;;;0.00;0.00;;;16.30;79.10;;;;;;5020847;28;20499;-74
2023/08/08 07:55:00;;;;;;;0.20;0.20;;;16.40;79.40;;;;;;5019655;28;20041;-73
2023/08/08 07:57:26;;;;;;;0.00;0.00;;;16.30;79.50;;;;;;5019510;28;20095;-74
2023/08/08 07:59:52;;;;;;;0.00;0.00;;;16.30;79.50;;;;;;5019890;28;20375;-74
2023/08/08 08:02:17;;;;;;;2.63;1.45;;;16.30;79.70;;;;;;5019442;28;20067;-74
2023/08/08 08:04:43;;;;;;;0.00;0.00;;;16.40;78.60;;;;;;5019334;28;20068;-74
2023/08/08 08:07:09;;;;;;;0.00;0.00;;;16.40;78.90;;;;;;5020336;28;20383;-74
2023/08/08 08:09:34;;;;;;;0.00;0.00;;;16.50;78.80;;;;;;5020158;28;20038;-74
2023/08/08 08:12:00;;;;;;;0.00;0.00;;;16.60;78.70;;;;;;5019949;28;20491;-73
2023/08/08 08:14:25;;;;;;;0.15;0.15;;;16.60;78.00;;;;;;5019832;28;20202;-74
2023/08/08 08:16:51;;;;;;;0.00;0.00;;;16.60;78.60;;;;;;5018140;28;20045;-74
2023/08/08 08:19:17;;;;;;;0.00;0.00;;;16.50;78.30;;;;;;5018219;28;20046;-73
2023/08/08 08:21:43;;;;;;;0.00;0.00;;;16.60;78.70;;;;;;5020095;28;20065;-74
2023/08/08 08:24:08;;;;;;;0.43;0.40;;;16.60;79.30;;;;;;5017948;28;20038;-74
2023/08/08 08:26:34;;;;;;;0.00;0.00;;;16.70;77.20;;;;;;5018632;28;20244;-74
2023/08/08 08:28:59;;;;;;;0.00;0.00;;;17.00;76.90;;;;;;5019380;28;20057;-74
2023/08/08 08:31:25;;;;;;;0.00;0.00;;;17.00;77.00;;;;;;5019900;28;20518;-74
2023/08/08 08:33:51;;;;;;;0.00;0.00;;;17.00;77.30;;;;;;5021218;28;20052;-74
2023/08/08 08:36:16;;;;;;;0.00;0.00;;;17.10;77.10;;;;;;5017109;28;20050;-74
2023/08/08 08:38:42;;;;;;;0.00;0.00;;;17.00;75.90;;;;;;5019535;28;20084;-74
2023/08/08 08:41:12;;;;;;;0.10;0.10;;;16.90;76.50;;;;;;5019737;28;20068;-74
2023/08/08 08:43:38;;;;;;;0.00;0.00;;;16.90;76.40;;;;;;5019109;28;20045;-73
2023/08/08 08:46:04;;;;;;;0.00;0.00;;;16.90;76.40;;;;;;5000821;28;20049;-73
2023/08/08 08:48:31;;;;;;;0.10;0.10;;;16.90;76.60;;;;;;5019750;28;20080;-74
2023/08/08 08:50:57;;;;;;;0.00;0.00;;;16.90;76.80;;;;;;5018939;28;20132;-73
2023/08/08 08:53:23;;;;;;;0.03;0.03;;;16.90;76.90;;;;;;5017853;28;20085;-74
2023/08/08 08:55:50;;;;;;;0.00;0.00;;;16.90;77.40;;;;;;5018774;28;20096;-74
2023/08/08 08:58:18;;;;;;;0.00;0.00;;;17.00;76.70;;;;;;5018599;28;20041;-74
2023/08/08 09:00:46;;;;;;;0.00;0.00;;;16.90;77.00;;;;;;5016865;28;20037;-74
2023/08/08 09:03:13;;;;;;;0.00;0.00;;;16.80;78.40;;;;;;5018523;28;20175;-73
2023/08/08 09:05:41;;;;;;;0.00;0.00;;;16.70;79.80;;;;;;5019918;28;20038;-74
2023/08/08 09:08:08;;;;;;;0.00;0.00;;;16.60;80.10;;;;;;5019181;28;20479;-74
2023/08/08 09:10:34;;;;;;;0.00;0.00;;;16.60;80.50;;;;;;5017519;28;20049;-74
2023/08/08 09:13:00;;;;;;;0.00;0.00;;;16.60;80.80;;;;;;5018325;28;20490;-74
2023/08/08 09:15:30;;;;;;;0.00;0.00;;;16.60;80.30;;;;;;5019518;28;20054;-74
2023/08/08 09:17:56;;;;;;;0.00;0.00;;;16.80;79.70;;;;;;5015545;28;20398;-74
2023/08/08 09:20:22;;;;;;;0.08;0.08;;;16.90;78.40;;;;;;5018299;28;20437;-74
2023/08/08 09:22:48;;;;;;;0.45;0.45;;;17.10;78.10;;;;;;5017398;28;20073;-74
2023/08/08 09:25:14;;;;;;;3.00;1.60;;;17.10;77.60;;;;;;5018196;28;20450;-74
2023/08/08 09:27:42;;;;;;;0.32;0.32;;;17.30;78.40;;;;;;5018127;28;20486;-74
2023/08/08 09:30:10;;;;;;;0.00;0.00;;;17.40;78.70;;;;;;5018526;28;20058;-74
2023/08/08 09:32:36;;;;;;;4.90;1.25;;;17.50;76.20;;;;;;5018237;28;20088;-74
2023/08/08 09:35:02;;;;;;;0.00;0.00;;;17.50;75.00;;;;;;5018169;28;20100;-74
2023/08/08 09:37:28;;;;;;;0.13;0.13;;;17.50;73.90;;;;;;5015595;28;20510;-74
2023/08/08 09:40:03;;;;;;;0.00;0.00;;;17.30;74.70;;;;;;5015374;28;20133;-74
2023/08/08 09:42:29;;;;;;;0.00;0.00;;;17.20;74.90;;;;;;5017517;28;20041;-74
2023/08/08 09:44:58;;;;;;;0.38;0.38;;;17.30;76.30;;;;;;5017722;28;20042;-74
2023/08/08 09:47:24;;;;;;;0.00;0.00;;;17.30;75.30;;;;;;5017372;28;20790;-74
2023/08/08 09:49:50;;;;;;;0.00;0.00;;;17.20;74.70;;;;;;5016784;28;20056;-74
2023/08/08 09:52:16;;;;;;;0.00;0.00;;;17.10;74.80;;;;;;5016166;28;20034;-74
2023/08/08 09:54:42;;;;;;;0.00;0.00;;;17.10;75.80;;;;;;5017232;28;20110;-74
2023/08/08 09:57:08;;;;;;;0.00;0.00;;;17.00;75.10;;;;;;5017777;28;20450;-74
2023/08/08 09:59:35;;;;;;;3.00;1.77;;;17.00;75.20;;;;;;5018577;28;20080;-74
2023/08/08 10:02:01;;;;;;;0.00;0.00;;;17.00;74.50;;;;;;5017303;28;20056;-73
2023/08/08 10:04:27;;;;;;;0.00;0.00;;;17.10;73.10;;;;;;5018076;28;20053;-73
2023/08/08 10:06:52;;;;;;;0.00;0.00;;;17.30;74.00;;;;;;5017886;28;20072;-72
2023/08/08 10:09:18;;;;;;;0.03;0.03;;;17.50;73.80;;;;;;5017129;28;20045;-74
2023/08/08 10:11:45;;;;;;;0.10;0.10;;;17.50;73.60;;;;;;5017232;28;20080;-74
2023/08/08 10:14:12;;;;;;;0.10;0.10;;;17.50;74.40;;;;;;5018210;28;20042;-74
2023/08/08 10:16:38;;;;;;;0.00;0.00;;;17.30;74.30;;;;;;5017855;28;20491;-74
2023/08/08 10:19:05;;;;;;;0.00;0.00;;;17.30;74.70;;;;;;5018477;28;20419;-74
2023/08/08 10:21:41;;;;;;;0.08;0.08;;;17.30;72.60;;;;;;5017896;28;20082;-75
2023/08/08 10:24:09;;;;;;;0.00;0.00;;;17.30;73.60;;;;;;5017326;28;20116;-74
2023/08/08 10:26:57;;;;;;;0.00;0.00;;;17.40;72.50;;;;;;5017527;28;20128;-74
2023/08/08 10:29:25;;;;;;;0.00;0.00;;;17.40;71.50;;;;;;5017936;28;20057;-75
2023/08/08 10:32:05;;;;;;;0.00;0.00;;;17.30;71.60;;;;;;5017544;28;20082;-75
2023/08/08 10:34:40;;;;;;;0.00;0.00;;;17.50;73.10;;;;;;5014699;28;20084;-74
2023/08/08 10:37:17;;;;;;;0.00;0.00;;;17.80;72.80;;;;;;5016642;28;20179;-74
2023/08/08 10:39:58;;;;;;;0.00;0.00;;;17.80;69.70;;;;;;5017034;28;20053;-74
2023/08/08 10:42:25;;;;;;;0.00;0.00;;;17.70;69.60;;;;;;5014607;28;20069;-75
2023/08/08 10:44:56;;;;;;;0.00;0.00;;;17.80;69.10;;;;;;4999474;28;20180;-75
2023/08/08 10:47:30;;;;;;;0.00;0.00;;;17.90;70.00;;;;;;5017092;28;20084;-75
2023/08/08 10:50:03;;;;;;;0.00;0.00;;;18.00;69.50;;;;;;5018169;28;20894;-73
2023/08/08 10:52:29;;;;;;;0.00;0.00;;;18.10;67.60;;;;;;5016583;28;20042;-74
2023/08/08 10:54:55;;;;;;;0.00;0.00;;;18.00;67.90;;;;;;5016546;28;20069;-73
2023/08/08 10:57:26;;;;;;;0.00;0.00;;;17.90;67.30;;;;;;5018325;28;20057;-74
2023/08/08 10:59:51;;;;;;;0.00;0.00;;;17.70;66.80;;;;;;5017862;28;20037;-74
2023/08/08 11:02:19;;;;;;;0.00;0.00;;;17.50;67.50;;;;;;5000349;28;20041;-74
2023/08/08 11:04:45;;;;;;;0.00;0.00;;;17.50;67.80;;;;;;5022319;28;20503;-74
2023/08/08 11:07:11;;;;;;;1.85;0.90;;;17.50;66.20;;;;;;5021049;28;20049;-73
2023/08/08 11:09:37;;;;;;;0.20;0.20;;;17.60;66.80;;;;;;5018340;28;20058;-73
2023/08/08 11:12:03;;;;;;;0.00;0.00;;;17.80;67.80;;;;;;5021198;28;20033;-72
2023/08/08 11:14:29;;;;;;;0.00;0.00;;;17.80;68.00;;;;;;5017944;28;20068;-73
2023/08/08 11:16:54;;;;;;;0.00;0.00;;;17.60;67.70;;;;;;5020452;28;20088;-72
2023/08/08 11:19:20;;;;;;;0.00;0.00;;;17.50;68.30;;;;;;5020638;28;20495;-73
2023/08/08 11:21:47;;;;;;;0.05;0.05;;;17.40;68.40;;;;;;5019594;28;20418;-73
2023/08/08 11:24:13;;;;;;;0.00;0.00;;;17.50;69.50;;;;;;5021447;28;20050;-73
2023/08/08 11:26:41;;;;;;;0.00;0.00;;;17.60;68.60;;;;;;5020679;28;20049;-72
2023/08/08 11:29:07;;;;;;;0.10;0.10;;;17.80;68.00;;;;;;5019975;28;20601;-73
2023/08/08 11:31:34;;;;;;;0.10;0.10;;;18.10;68.60;;;;;;5019534;28;20584;-73
2023/08/08 11:34:01;;;;;;;0.00;0.00;;;18.10;66.70;;;;;;5019648;28;20049;-72
2023/08/08 11:36:30;;;;;;;0.00;0.00;;;18.10;66.00;;;;;;5020744;28;20152;-73
2023/08/08 11:38:57;;;;;;;0.10;0.10;;;17.90;67.60;;;;;;5020181;28;20045;-73
2023/08/08 11:41:24;;;;;;;0.63;0.63;;;17.80;68.20;;;;;;5021179;28;20049;-72
2023/08/08 11:43:53;;;;;;;0.00;0.00;;;17.80;68.70;;;;;;5003065;28;20133;-73
2023/08/08 11:46:22;;;;;;;0.00;0.00;;;17.80;67.60;;;;;;5020900;28;20104;-74
2023/08/08 11:48:48;;;;;;;0.00;0.00;;;18.00;65.90;;;;;;5020414;28;20045;-74
2023/08/08 11:51:15;;;;;;;0.00;0.00;;;18.20;67.90;;;;;;5020036;28;20072;-73
2023/08/08 11:53:51;;;;;;;0.00;0.00;;;18.30;66.20;;;;;;5019813;28;20050;-74
2023/08/08 11:56:19;;;;;;;0.88;0.88;;;18.40;66.00;;;;;;5020236;28;20077;-74
2023/08/08 11:58:44;;;;;;;0.00;0.00;;;18.30;64.20;;;;;;5020615;28;20045;-74
2023/08/08 12:01:13;;;;;;;0.00;0.00;;;18.20;66.70;;;;;;5019602;28;20038;-73
2023/08/08 12:03:40;;;;;;;0.00;0.00;;;18.30;65.60;;;;;;5018805;28;20044;-73
2023/08/08 12:06:12;;;;;;;0.70;0.70;;;18.40;65.70;;;;;;5018900;28;20045;-74
2023/08/08 12:08:40;;;;;;;0.00;0.00;;;18.30;64.20;;;;;;5016881;28;20061;-73
2023/08/08 12:11:05;;;;;;;0.00;0.00;;;18.10;65.60;;;;;;5020041;28;20104;-73
2023/08/08 12:13:31;;;;;;;0.15;0.15;;;18.20;66.00;;;;;;5019063;28;20045;-74
2023/08/08 12:15:59;;;;;;;0.00;0.00;;;18.10;66.80;;;;;;5016521;28;20763;-73
2023/08/08 12:18:24;;;;;;;0.00;0.00;;;17.80;65.80;;;;;;5018812;28;20076;-73
2023/08/08 12:20:50;;;;;;;0.10;0.10;;;17.90;65.50;;;;;;5019404;28;20045;-73
2023/08/08 12:23:15;;;;;;;0.20;0.20;;;18.10;66.60;;;;;;5020084;28;20041;-73
2023/08/08 12:25:43;;;;;;;0.00;0.00;;;18.20;66.90;;;;;;5016669;28;20058;-74
2023/08/08 12:28:09;;;;;;;0.00;0.00;;;18.30;65.80;;;;;;5017397;28;20454;-73
2023/08/08 12:30:34;;;;;;;0.00;0.00;;;18.20;63.40;;;;;;5017118;28;20056;-73
2023/08/08 12:33:00;;;;;;;0.00;0.00;;;18.10;64.80;;;;;;5018300;28;20052;-72
2023/08/08 12:35:27;;;;;;;0.00;0.00;;;18.10;65.50;;;;;;5018254;28;20136;-73
2023/08/08 12:37:53;;;;;;;0.00;0.00;;;18.00;67.10;;;;;;5019487;28;20072;-72
2023/08/08 12:40:18;;;;;;;0.00;0.00;;;18.10;66.80;;;;;;5016712;28;20037;-72
2023/08/08 12:42:44;;;;;;;0.00;0.00;;;18.00;65.80;;;;;;5019758;28;20042;-72